Time;durP1;ratioP1;P1;durP2;ratioP2;P2;SDS_P1;SDS_P2;PMS_P1;PMS_P2;Temp;Humidity;BMP_temperature;BMP_pressure;BME280_temperature;BME280_humidity;BME280_pressure;Samples;Min_cycle;Max_cycle;Signal;HPM_P1;HPM_P2
2021/01/07 00:01:55;;;;;;;31.55;29.05;;;;;;;;;;5074900;28;20183;-80
2021/01/07 00:04:22;;;;;;;31.40;29.10;;;;;;;;;;5075049;28;20278;-80
2021/01/07 00:06:49;;;;;;;31.42;28.98;;;;;;;;;;5074930;28;20192;-79
2021/01/07 00:09:16;;;;;;;29.92;27.73;;;;;;;;;;5074465;28;20195;-79
2021/01/07 00:11:44;;;;;;;30.85;28.25;;;;;;;;;;5074382;28;20208;-79
2021/01/07 00:14:11;;;;;;;29.13;26.95;;;;;;;;;;5074849;28;20215;-80
2021/01/07 00:16:38;;;;;;;26.08;24.17;;;;;;;;;;5074643;28;20192;-80
2021/01/07 00:19:05;;;;;;;22.83;21.45;;;;;;;;;;5074548;28;20199;-78
2021/01/07 00:21:32;;;;;;;25.10;23.40;;;;;;;;;;5074538;28;20184;-80
2021/01/07 00:23:59;;;;;;;26.90;25.10;;;;;;;;;;5074127;28;20194;-80
2021/01/07 00:26:26;;;;;;;27.77;25.75;;;;;;;;;;5074463;28;20640;-80
2021/01/07 00:28:54;;;;;;;26.10;24.30;;;;;;;;;;5074068;28;20192;-80
2021/01/07 00:31:21;;;;;;;27.40;25.38;;;;;;;;;;5074578;28;20191;-80
2021/01/07 00:33:48;;;;;;;27.15;25.20;;;;;;;;;;5073917;28;20573;-80
2021/01/07 00:36:17;;;;;;;27.02;25.02;;;;;;;;;;5073916;28;20227;-80
2021/01/07 00:38:44;;;;;;;27.65;25.85;;;;;;;;;;5074461;28;20199;-80
2021/01/07 00:41:11;;;;;;;28.17;26.17;;;;;;;;;;5074109;28;20218;-80
2021/01/07 00:43:38;;;;;;;27.00;25.13;;;;;;;;;;5074350;28;20187;-79
2021/01/07 00:46:06;;;;;;;28.45;26.35;;;;;;;;;;5074131;28;20189;-80
2021/01/07 00:48:33;;;;;;;27.08;25.08;;;;;;;;;;5072425;28;20203;-79
2021/01/07 00:51:00;;;;;;;27.88;25.83;;;;;;;;;;5055987;28;20600;-79
2021/01/07 00:53:27;;;;;;;27.95;25.95;;;;;;;;;;5073713;28;20235;-80
2021/01/07 00:55:54;;;;;;;25.88;24.00;;;;;;;;;;5073772;28;20215;-80
2021/01/07 00:58:21;;;;;;;28.17;26.08;;;;;;;;;;5073633;28;20286;-80
2021/01/07 01:00:48;;;;;;;28.52;26.63;;;;;;;;;;5073882;28;20210;-79
2021/01/07 01:03:16;;;;;;;27.70;25.60;;;;;;;;;;5072734;28;20198;-80
2021/01/07 01:05:43;;;;;;;29.20;27.00;;;;;;;;;;5073792;28;20200;-79
2021/01/07 01:08:10;;;;;;;27.08;25.27;;;;;;;;;;5073488;28;20208;-80
2021/01/07 01:10:37;;;;;;;26.25;24.55;;;;;;;;;;5073480;28;20198;-80
2021/01/07 01:13:04;;;;;;;25.85;24.05;;;;;;;;;;5073463;28;20187;-80
2021/01/07 01:15:31;;;;;;;26.80;24.90;;;;;;;;;;5072228;28;20207;-79
2021/01/07 01:17:58;;;;;;;27.40;25.48;;;;;;;;;;5072022;28;20208;-80
2021/01/07 01:20:26;;;;;;;28.48;26.15;;;;;;;;;;5073279;28;20219;-80
2021/01/07 01:22:53;;;;;;;26.38;24.13;;;;;;;;;;5072599;28;20205;-80
2021/01/07 01:25:19;;;;;;;27.55;25.55;;;;;;;;;;5073674;28;20188;-79
2021/01/07 01:27:46;;;;;;;26.35;24.55;;;;;;;;;;5073348;28;20191;-78
2021/01/07 01:30:14;;;;;;;27.30;25.40;;;;;;;;;;5073368;28;20634;-80
2021/01/07 01:32:41;;;;;;;25.30;23.70;;;;;;;;;;5073341;28;20188;-80
2021/01/07 01:35:09;;;;;;;28.02;25.92;;;;;;;;;;5072436;28;20231;-79
2021/01/07 01:37:38;;;;;;;27.13;25.08;;;;;;;;;;5073373;28;20230;-80
2021/01/07 01:40:05;;;;;;;28.88;26.58;;;;;;;;;;5073643;28;20214;-80
2021/01/07 01:42:32;;;;;;;27.20;25.20;;;;;;;;;;5073240;28;20192;-80
2021/01/07 01:44:59;;;;;;;27.58;25.58;;;;;;;;;;5073438;28;20235;-79
2021/01/07 01:47:26;;;;;;;28.38;26.08;;;;;;;;;;5073133;28;20312;-79
2021/01/07 01:49:54;;;;;;;25.98;24.17;;;;;;;;;;5073279;28;20246;-79
2021/01/07 01:52:21;;;;;;;25.48;23.50;;;;;;;;;;5073248;28;20289;-78
2021/01/07 01:54:49;;;;;;;27.65;25.52;;;;;;;;;;5073314;28;20218;-79
2021/01/07 01:57:16;;;;;;;26.23;24.42;;;;;;;;;;5073387;28;20216;-79
2021/01/07 01:59:44;;;;;;;27.63;25.52;;;;;;;;;;5073755;28;20199;-79
2021/01/07 02:02:12;;;;;;;27.33;25.33;;;;;;;;;;5077184;28;20519;-79
2021/01/07 02:04:39;;;;;;;27.65;25.65;;;;;;;;;;5077141;28;20196;-79
2021/01/07 02:07:09;;;;;;;28.30;26.20;;;;;;;;;;5076725;28;20203;-78
2021/01/07 02:09:37;;;;;;;28.27;26.27;;;;;;;;;;5077193;28;20183;-79
2021/01/07 02:12:05;;;;;;;27.60;25.70;;;;;;;;;;5076687;28;20548;-79
2021/01/07 02:14:32;;;;;;;29.17;26.88;;;;;;;;;;5076860;28;20223;-79
2021/01/07 02:16:59;;;;;;;29.65;27.35;;;;;;;;;;5076597;28;20641;-78
2021/01/07 02:19:26;;;;;;;28.50;26.20;;;;;;;;;;5076857;28;20184;-79
2021/01/07 02:21:54;;;;;;;27.17;25.33;;;;;;;;;;5077314;28;20187;-79
2021/01/07 02:24:21;;;;;;;28.48;26.48;;;;;;;;;;5076535;28;20683;-79
2021/01/07 02:26:48;;;;;;;28.17;25.98;;;;;;;;;;5076960;28;20183;-79
2021/01/07 02:29:15;;;;;;;29.75;27.35;;;;;;;;;;5076583;28;20645;-79
2021/01/07 02:31:42;;;;;;;29.65;27.25;;;;;;;;;;5075626;28;20588;-79
2021/01/07 02:34:08;;;;;;;30.65;28.35;;;;;;;;;;5076378;28;20188;-79
2021/01/07 02:36:35;;;;;;;28.20;26.17;;;;;;;;;;5076557;28;20280;-79
2021/01/07 02:39:04;;;;;;;29.95;27.52;;;;;;;;;;5076418;28;20198;-79
2021/01/07 02:41:30;;;;;;;29.10;26.90;;;;;;;;;;5076209;28;20246;-79
2021/01/07 02:43:57;;;;;;;30.55;28.10;;;;;;;;;;5076276;28;20552;-79
2021/01/07 02:46:24;;;;;;;29.98;27.58;;;;;;;;;;5076461;28;20192;-79
2021/01/07 02:48:51;;;;;;;28.35;26.23;;;;;;;;;;5076351;28;20565;-79
2021/01/07 02:51:18;;;;;;;28.15;25.95;;;;;;;;;;5075953;28;20203;-79
2021/01/07 02:53:45;;;;;;;29.80;27.30;;;;;;;;;;5075718;28;20284;-79
2021/01/07 02:56:13;;;;;;;29.35;26.67;;;;;;;;;;5075984;28;20218;-79
2021/01/07 02:58:40;;;;;;;28.50;26.40;;;;;;;;;;5074936;28;20543;-79
2021/01/07 03:01:07;;;;;;;28.05;25.95;;;;;;;;;;5076295;28;20187;-79
2021/01/07 03:03:33;;;;;;;27.70;25.60;;;;;;;;;;5075971;28;20195;-79
2021/01/07 03:06:00;;;;;;;29.27;27.08;;;;;;;;;;5076050;28;20191;-79
2021/01/07 03:08:27;;;;;;;29.50;27.30;;;;;;;;;;5075759;28;20191;-79
2021/01/07 03:10:54;;;;;;;29.77;27.38;;;;;;;;;;5075441;28;20207;-79
2021/01/07 03:13:22;;;;;;;31.45;28.95;;;;;;;;;;5075627;28;20204;-79
2021/01/07 03:15:49;;;;;;;30.25;27.85;;;;;;;;;;5075896;28;20215;-79
2021/01/07 03:18:16;;;;;;;31.42;29.02;;;;;;;;;;5074476;28;20556;-79
2021/01/07 03:20:43;;;;;;;29.98;27.45;;;;;;;;;;5075527;28;20537;-79
2021/01/07 03:23:10;;;;;;;30.38;27.90;;;;;;;;;;5075706;28;20188;-79
2021/01/07 03:25:37;;;;;;;30.38;27.73;;;;;;;;;;5074595;28;20194;-79
2021/01/07 03:28:04;;;;;;;31.85;29.40;;;;;;;;;;5075727;28;20420;-79
2021/01/07 03:30:32;;;;;;;32.40;29.40;;;;;;;;;;5075707;28;20188;-79
2021/01/07 03:32:59;;;;;;;33.25;30.10;;;;;;;;;;5075366;28;20218;-80
2021/01/07 03:35:26;;;;;;;30.85;28.08;;;;;;;;;;5075321;28;20273;-79
2021/01/07 03:37:53;;;;;;;30.95;28.25;;;;;;;;;;5075662;28;20188;-79
2021/01/07 03:40:20;;;;;;;32.35;29.75;;;;;;;;;;5074923;28;20199;-79
2021/01/07 03:42:47;;;;;;;31.25;28.70;;;;;;;;;;5075110;28;20224;-79
2021/01/07 03:45:14;;;;;;;31.00;28.60;;;;;;;;;;5075483;28;20184;-79
2021/01/07 03:47:42;;;;;;;30.17;27.67;;;;;;;;;;5075460;28;20188;-79
2021/01/07 03:50:10;;;;;;;32.90;30.17;;;;;;;;;;5074861;28;20238;-79
2021/01/07 03:52:37;;;;;;;30.55;27.98;;;;;;;;;;5074654;28;20224;-79
2021/01/07 03:55:04;;;;;;;25.20;23.60;;;;;;;;;;5075078;28;20219;-79
2021/01/07 03:57:31;;;;;;;31.60;28.90;;;;;;;;;;5075084;28;20586;-79
2021/01/07 03:59:58;;;;;;;29.80;27.08;;;;;;;;;;5075051;28;20192;-79
2021/01/07 04:02:25;;;;;;;27.90;25.50;;;;;;;;;;5073772;28;20207;-79
2021/01/07 04:04:53;;;;;;;32.03;29.38;;;;;;;;;;5075045;28;20214;-79
2021/01/07 04:07:20;;;;;;;31.77;28.88;;;;;;;;;;5074947;28;20202;-79
2021/01/07 04:09:47;;;;;;;31.77;29.02;;;;;;;;;;5073484;28;20199;-79
2021/01/07 04:12:14;;;;;;;33.28;29.88;;;;;;;;;;5074437;28;20581;-79
2021/01/07 04:14:41;;;;;;;29.38;27.02;;;;;;;;;;5074698;28;20600;-79
2021/01/07 04:17:08;;;;;;;27.88;25.67;;;;;;;;;;5074797;28;20188;-79
2021/01/07 04:19:35;;;;;;;30.98;28.20;;;;;;;;;;5074279;28;20648;-79
2021/01/07 04:22:03;;;;;;;30.80;28.35;;;;;;;;;;5074153;28;20188;-79
2021/01/07 04:24:30;;;;;;;31.17;28.58;;;;;;;;;;5074356;28;20195;-79
2021/01/07 04:26:57;;;;;;;29.58;27.10;;;;;;;;;;5074470;28;20187;-79
2021/01/07 04:29:24;;;;;;;30.27;27.60;;;;;;;;;;5074480;28;20191;-79
2021/01/07 04:31:51;;;;;;;30.88;27.92;;;;;;;;;;5073248;28;20187;-79
2021/01/07 04:34:17;;;;;;;30.08;27.48;;;;;;;;;;5074275;28;20193;-79
2021/01/07 04:36:44;;;;;;;25.77;24.00;;;;;;;;;;5073894;28;20219;-79
2021/01/07 04:39:12;;;;;;;30.10;27.70;;;;;;;;;;5074334;28;20554;-79
2021/01/07 04:41:39;;;;;;;27.45;25.25;;;;;;;;;;5074251;28;20195;-80
2021/01/07 04:44:06;;;;;;;30.25;27.60;;;;;;;;;;5073952;28;20245;-79
2021/01/07 04:46:33;;;;;;;29.00;26.83;;;;;;;;;;5074132;28;20191;-79
2021/01/07 04:49:00;;;;;;;31.10;28.40;;;;;;;;;;5073827;28;20191;-79
2021/01/07 04:51:27;;;;;;;30.55;28.05;;;;;;;;;;5074147;28;20203;-78
2021/01/07 04:53:54;;;;;;;30.40;28.00;;;;;;;;;;5073764;28;20310;-79
2021/01/07 04:56:22;;;;;;;28.95;26.48;;;;;;;;;;5073640;28;20219;-79
2021/01/07 04:58:49;;;;;;;27.50;25.55;;;;;;;;;;5074057;28;20188;-79
2021/01/07 05:01:16;;;;;;;30.80;28.30;;;;;;;;;;5074032;28;20246;-79
2021/01/07 05:03:45;;;;;;;30.95;28.35;;;;;;;;;;5073732;28;20211;-79
2021/01/07 05:06:12;;;;;;;31.23;28.67;;;;;;;;;;5073877;28;20192;-79
2021/01/07 05:08:39;;;;;;;29.42;27.13;;;;;;;;;;5073508;28;20273;-79
2021/01/07 05:11:06;;;;;;;31.70;29.13;;;;;;;;;;5073705;28;20203;-79
2021/01/07 05:13:34;;;;;;;31.80;29.05;;;;;;;;;;5073526;28;20596;-78
2021/01/07 05:16:01;;;;;;;30.92;28.38;;;;;;;;;;5073691;28;20226;-79
2021/01/07 05:18:28;;;;;;;32.75;29.73;;;;;;;;;;5072640;28;20533;-79
2021/01/07 05:20:54;;;;;;;31.45;28.95;;;;;;;;;;5073320;28;20556;-79
2021/01/07 05:23:22;;;;;;;32.80;30.10;;;;;;;;;;5073718;28;20191;-79
2021/01/07 05:25:56;;;;;;;28.77;26.65;;;;;;;;;;5073350;28;20190;-79
2021/01/07 05:28:23;;;;;;;32.13;29.45;;;;;;;;;;5073700;28;20193;-79
2021/01/07 05:30:51;;;;;;;30.17;28.00;;;;;;;;;;5073738;28;20196;-79
2021/01/07 05:33:19;;;;;;;31.55;28.95;;;;;;;;;;5072534;28;20534;-79
2021/01/07 05:35:46;;;;;;;31.83;29.10;;;;;;;;;;5076794;28;20262;-79
2021/01/07 05:38:12;;;;;;;32.08;29.45;;;;;;;;;;5077438;28;20657;-79
2021/01/07 05:40:40;;;;;;;33.53;30.60;;;;;;;;;;5077316;28;20226;-79
2021/01/07 05:43:13;;;;;;;29.50;27.00;;;;;;;;;;5077358;28;20210;-79
2021/01/07 05:45:40;;;;;;;33.13;30.27;;;;;;;;;;5077245;28;20194;-79
2021/01/07 05:48:09;;;;;;;27.67;25.70;;;;;;;;;;5077222;28;20650;-79
2021/01/07 05:50:37;;;;;;;29.65;26.92;;;;;;;;;;5077178;28;20195;-79
2021/01/07 05:53:04;;;;;;;28.45;26.20;;;;;;;;;;5076931;28;20259;-79
2021/01/07 05:55:31;;;;;;;30.65;28.15;;;;;;;;;;5077204;28;20573;-79
2021/01/07 05:57:59;;;;;;;28.40;26.25;;;;;;;;;;5076999;28;20656;-79
2021/01/07 06:00:28;;;;;;;29.70;27.30;;;;;;;;;;5076897;28;20184;-79
2021/01/07 06:02:56;;;;;;;31.83;29.20;;;;;;;;;;5077098;28;20191;-79
2021/01/07 06:05:25;;;;;;;33.00;30.23;;;;;;;;;;5076562;28;20211;-79
2021/01/07 06:07:53;;;;;;;32.95;30.13;;;;;;;;;;5077084;28;20199;-79
2021/01/07 06:10:21;;;;;;;32.22;29.55;;;;;;;;;;5077054;28;20633;-79
2021/01/07 06:12:49;;;;;;;34.15;30.92;;;;;;;;;;5078290;28;20195;-79
2021/01/07 06:15:17;;;;;;;31.45;28.75;;;;;;;;;;5075704;28;20234;-79
2021/01/07 06:17:45;;;;;;;28.90;26.70;;;;;;;;;;5075720;28;20210;-78
2021/01/07 06:20:15;;;;;;;32.33;29.38;;;;;;;;;;5076826;28;20187;-78
2021/01/07 06:22:45;;;;;;;31.23;28.38;;;;;;;;;;5076896;28;20183;-78
2021/01/07 06:25:13;;;;;;;29.35;27.08;;;;;;;;;;5076871;28;20203;-79
2021/01/07 06:27:42;;;;;;;33.30;30.50;;;;;;;;;;5076354;28;20206;-78
2021/01/07 06:30:27;;;;;;;31.45;28.60;;;;;;;;;;5076394;28;20207;-79
2021/01/07 06:33:01;;;;;;;28.58;26.27;;;;;;;;;;5076751;28;20196;-79
2021/01/07 06:35:34;;;;;;;33.08;30.08;;;;;;;;;;5076079;28;20227;-78
2021/01/07 06:38:02;;;;;;;31.58;28.98;;;;;;;;;;5076405;28;20188;-79
2021/01/07 06:40:29;;;;;;;33.65;30.88;;;;;;;;;;5076544;28;20192;-78
2021/01/07 06:42:57;;;;;;;33.38;30.30;;;;;;;;;;5076151;28;20634;-79
2021/01/07 06:45:25;;;;;;;32.45;29.73;;;;;;;;;;5076123;28;20549;-79
2021/01/07 06:47:53;;;;;;;34.78;31.77;;;;;;;;;;5076158;28;20215;-80
2021/01/07 06:50:21;;;;;;;28.73;26.52;;;;;;;;;;5075897;28;20646;-80
2021/01/07 06:52:48;;;;;;;32.90;30.23;;;;;;;;;;5074595;28;20704;-79
2021/01/07 06:55:17;;;;;;;30.38;27.83;;;;;;;;;;5075909;28;20635;-80
2021/01/07 06:57:44;;;;;;;33.90;30.85;;;;;;;;;;5075871;28;20188;-80
2021/01/07 07:00:12;;;;;;;30.15;27.85;;;;;;;;;;5076160;28;20199;-80
2021/01/07 07:02:39;;;;;;;32.45;29.52;;;;;;;;;;5075908;28;20707;-79
2021/01/07 07:05:07;;;;;;;28.70;26.42;;;;;;;;;;5075790;28;20212;-80
2021/01/07 07:07:52;;;;;;;31.80;29.10;;;;;;;;;;5075486;28;20223;-80
2021/01/07 07:10:37;;;;;;;30.67;27.98;;;;;;;;;;5075785;28;20207;-80
2021/01/07 07:13:16;;;;;;;32.85;30.05;;;;;;;;;;5075558;28;20645;-80
2021/01/07 07:15:43;;;;;;;30.75;28.17;;;;;;;;;;5075662;28;20227;-80
2021/01/07 07:18:10;;;;;;;32.25;29.58;;;;;;;;;;5075792;28;20183;-79
2021/01/07 07:20:39;;;;;;;31.42;28.67;;;;;;;;;;5075304;28;20707;-80
2021/01/07 07:23:13;;;;;;;33.28;30.17;;;;;;;;;;5075352;28;20191;-80
2021/01/07 07:25:41;;;;;;;28.33;26.02;;;;;;;;;;5075624;28;20196;-80
2021/01/07 07:28:10;;;;;;;32.53;29.92;;;;;;;;;;5075623;28;20203;-79
2021/01/07 07:30:41;;;;;;;32.75;30.02;;;;;;;;;;5074148;28;20656;-80
2021/01/07 07:33:08;;;;;;;32.33;29.67;;;;;;;;;;5075526;28;20191;-80
2021/01/07 07:35:42;;;;;;;30.33;28.02;;;;;;;;;;5075294;28;20235;-80
2021/01/07 07:38:10;;;;;;;34.35;31.25;;;;;;;;;;5075091;28;20188;-79
2021/01/07 07:40:39;;;;;;;35.03;32.03;;;;;;;;;;5075138;28;20192;-80
2021/01/07 07:43:07;;;;;;;35.45;32.33;;;;;;;;;;5075120;28;20196;-80
2021/01/07 07:45:34;;;;;;;35.38;32.15;;;;;;;;;;5075050;28;20230;-80
2021/01/07 07:48:02;;;;;;;34.75;31.75;;;;;;;;;;5074339;28;20261;-80
2021/01/07 07:50:30;;;;;;;32.72;30.05;;;;;;;;;;5075170;28;20211;-80
2021/01/07 07:53:04;;;;;;;34.67;31.98;;;;;;;;;;5074888;28;20309;-75
2021/01/07 07:55:34;;;;;;;33.70;30.65;;;;;;;;;;5074837;28;20215;-75
2021/01/07 07:58:08;;;;;;;30.52;27.80;;;;;;;;;;5072925;28;20195;-76
2021/01/07 08:00:35;;;;;;;28.08;25.92;;;;;;;;;;5074844;28;20198;-79
2021/01/07 08:03:03;;;;;;;33.30;30.80;;;;;;;;;;5074611;28;20192;-79
2021/01/07 08:05:31;;;;;;;32.08;29.58;;;;;;;;;;5074995;28;20210;-75
2021/01/07 08:07:58;;;;;;;31.90;29.40;;;;;;;;;;5074823;28;20189;-75
2021/01/07 08:10:25;;;;;;;33.15;30.25;;;;;;;;;;5074769;28;20191;-75
2021/01/07 08:12:53;;;;;;;29.90;27.80;;;;;;;;;;5073516;28;20202;-75
2021/01/07 08:15:29;;;;;;;33.10;30.30;;;;;;;;;;5074174;28;20216;-75
2021/01/07 08:17:56;;;;;;;34.97;32.35;;;;;;;;;;5073395;28;20202;-75
2021/01/07 08:20:24;;;;;;;34.80;32.00;;;;;;;;;;5074432;28;20527;-75
2021/01/07 08:22:52;;;;;;;36.60;33.42;;;;;;;;;;5074653;28;20200;-75
2021/01/07 08:25:25;;;;;;;37.35;34.25;;;;;;;;;;5074375;28;20192;-75
2021/01/07 08:27:56;;;;;;;37.00;33.85;;;;;;;;;;5073274;28;20193;-75
2021/01/07 08:30:23;;;;;;;37.08;34.05;;;;;;;;;;5072972;28;20187;-81
2021/01/07 08:32:51;;;;;;;36.30;33.55;;;;;;;;;;5074668;28;20183;-82
2021/01/07 08:35:21;;;;;;;36.85;33.70;;;;;;;;;;5073968;28;20238;-81
2021/01/07 08:37:49;;;;;;;38.58;35.53;;;;;;;;;;5074212;28;20257;-80
2021/01/07 08:40:16;;;;;;;35.42;32.53;;;;;;;;;;5074105;28;20286;-82
2021/01/07 08:42:43;;;;;;;38.10;34.97;;;;;;;;;;5074257;28;20188;-84
2021/01/07 08:45:10;;;;;;;37.10;34.15;;;;;;;;;;5074707;28;20192;-80
2021/01/07 08:47:38;;;;;;;38.10;34.90;;;;;;;;;;5073851;28;20184;-79
2021/01/07 08:50:06;;;;;;;38.35;35.35;;;;;;;;;;5073714;28;20212;-80
2021/01/07 08:52:47;;;;;;;37.80;34.70;;;;;;;;;;5073542;28;20227;-80
2021/01/07 08:55:15;;;;;;;36.80;33.95;;;;;;;;;;5073819;28;20215;-80
2021/01/07 08:57:42;;;;;;;33.90;31.20;;;;;;;;;;5074101;28;20195;-81
2021/01/07 09:00:14;;;;;;;34.58;31.85;;;;;;;;;;5074679;28;20599;-87
2021/01/07 09:02:41;;;;;;;32.67;30.00;;;;;;;;;;5073336;28;20199;-83
2021/01/07 09:05:09;;;;;;;33.20;30.52;;;;;;;;;;5074136;28;20192;-81
2021/01/07 09:07:36;;;;;;;30.50;28.10;;;;;;;;;;5073895;28;20206;-85
2021/01/07 09:10:03;;;;;;;29.38;27.23;;;;;;;;;;5075007;28;20207;-85
2021/01/07 09:12:31;;;;;;;29.48;27.15;;;;;;;;;;5074769;28;20184;-85
2021/01/07 09:15:00;;;;;;;26.42;24.50;;;;;;;;;;5073967;28;20187;-84
2021/01/07 09:17:28;;;;;;;29.98;27.67;;;;;;;;;;5078099;28;20237;-84
2021/01/07 09:19:55;;;;;;;29.70;27.35;;;;;;;;;;5075650;28;20204;-84
2021/01/07 09:22:26;;;;;;;29.17;26.98;;;;;;;;;;5077421;28;20184;-84
2021/01/07 09:24:53;;;;;;;26.45;24.45;;;;;;;;;;5076597;28;20200;-80
2021/01/07 09:27:21;;;;;;;28.77;26.48;;;;;;;;;;5075394;28;20191;-83
2021/01/07 09:29:50;;;;;;;29.02;26.67;;;;;;;;;;5075312;28;20199;-85
2021/01/07 09:32:17;;;;;;;26.58;24.65;;;;;;;;;;5076761;28;20206;-81
2021/01/07 09:34:45;;;;;;;29.83;27.38;;;;;;;;;;5075481;28;20238;-83
2021/01/07 09:37:13;;;;;;;27.30;25.17;;;;;;;;;;5073919;28;20215;-83
2021/01/07 09:39:40;;;;;;;27.42;25.40;;;;;;;;;;5073852;28;20188;-83
2021/01/07 09:42:07;;;;;;;28.35;26.25;;;;;;;;;;5074905;28;20187;-84
2021/01/07 09:44:34;;;;;;;28.30;26.15;;;;;;;;;;5073903;28;20200;-84
2021/01/07 09:47:03;;;;;;;28.08;25.98;;;;;;;;;;5073412;28;20210;-79
2021/01/07 09:49:30;;;;;;;28.80;26.52;;;;;;;;;;5072490;28;20192;-77
2021/01/07 09:51:57;;;;;;;27.92;25.92;;;;;;;;;;5073700;28;20593;-78
2021/01/07 09:54:24;;;;;;;29.05;26.92;;;;;;;;;;5073086;28;20188;-78
2021/01/07 09:56:57;;;;;;;29.08;26.80;;;;;;;;;;5073773;28;20216;-88
2021/01/07 09:59:24;;;;;;;43.38;23.83;;;;;;;;;;5073596;28;20200;-77
2021/01/07 10:01:54;;;;;;;28.33;26.20;;;;;;;;;;5073408;28;20677;-78
2021/01/07 10:04:22;;;;;;;27.27;25.20;;;;;;;;;;5073875;28;20282;-77
2021/01/07 10:06:49;;;;;;;24.65;22.95;;;;;;;;;;5073136;28;20573;-78
2021/01/07 10:09:16;;;;;;;26.85;24.90;;;;;;;;;;5073348;28;20196;-78
2021/01/07 10:11:43;;;;;;;29.30;27.00;;;;;;;;;;5073448;28;20541;-77
2021/01/07 10:14:10;;;;;;;25.08;23.33;;;;;;;;;;5073402;28;20203;-77
2021/01/07 10:16:37;;;;;;;28.25;26.02;;;;;;;;;;5073103;28;20246;-77
2021/01/07 10:19:04;;;;;;;28.63;26.33;;;;;;;;;;5071832;28;20234;-77
2021/01/07 10:21:38;;;;;;;26.75;24.92;;;;;;;;;;5075922;28;20191;-77
2021/01/07 10:24:06;;;;;;;28.13;26.00;;;;;;;;;;5075524;28;20202;-77
2021/01/07 10:26:33;;;;;;;29.98;27.77;;;;;;;;;;5076527;28;20203;-77
2021/01/07 10:29:00;;;;;;;28.77;26.35;;;;;;;;;;5076787;28;20188;-78
2021/01/07 10:31:27;;;;;;;29.85;27.55;;;;;;;;;;5076366;28;20225;-77
2021/01/07 10:33:54;;;;;;;30.35;28.08;;;;;;;;;;5076618;28;20191;-77
2021/01/07 10:36:21;;;;;;;29.50;27.20;;;;;;;;;;5076220;28;20231;-77
2021/01/07 10:38:49;;;;;;;26.20;24.35;;;;;;;;;;5075624;28;20307;-77
2021/01/07 10:41:17;;;;;;;28.75;26.63;;;;;;;;;;5076368;28;20196;-76
2021/01/07 10:43:47;;;;;;;29.98;27.48;;;;;;;;;;5076111;28;20554;-76
2021/01/07 10:46:16;;;;;;;29.83;27.48;;;;;;;;;;5076434;28;20613;-77
2021/01/07 10:48:45;;;;;;;30.02;27.40;;;;;;;;;;5076100;28;20635;-77
2021/01/07 10:51:13;;;;;;;29.85;27.45;;;;;;;;;;5075914;28;20232;-77
2021/01/07 10:54:01;;;;;;;31.20;28.58;;;;;;;;;;5075877;28;20230;-77
2021/01/07 10:56:37;;;;;;;31.40;28.92;;;;;;;;;;5075838;28;20215;-77
2021/01/07 10:59:20;;;;;;;26.20;24.30;;;;;;;;;;5075906;28;20192;-76
2021/01/07 11:02:07;;;;;;;30.48;28.00;;;;;;;;;;5074687;28;20195;-77
2021/01/07 11:04:46;;;;;;;31.88;29.23;;;;;;;;;;5075697;28;20271;-77
2021/01/07 11:07:15;;;;;;;29.65;27.45;;;;;;;;;;5074494;28;20519;-77
2021/01/07 11:09:47;;;;;;;31.73;29.13;;;;;;;;;;5075981;28;20211;-77
2021/01/07 11:12:16;;;;;;;29.85;27.65;;;;;;;;;;5075187;28;20639;-78
2021/01/07 11:14:46;;;;;;;31.23;28.83;;;;;;;;;;5060770;28;20196;-78
2021/01/07 11:17:15;;;;;;;31.92;29.38;;;;;;;;;;5055268;28;20212;-78
2021/01/07 11:19:43;;;;;;;32.05;29.55;;;;;;;;;;5053776;28;20271;-77
2021/01/07 11:22:14;;;;;;;32.28;29.60;;;;;;;;;;5055654;28;20200;-78
2021/01/07 11:24:41;;;;;;;32.78;30.02;;;;;;;;;;5055626;28;20184;-78
2021/01/07 11:27:11;;;;;;;31.80;29.23;;;;;;;;;;5055451;28;20695;-78
2021/01/07 11:29:39;;;;;;;32.42;29.67;;;;;;;;;;5055564;28;20189;-77
2021/01/07 11:32:07;;;;;;;33.70;30.88;;;;;;;;;;5055510;28;20193;-79
2021/01/07 11:34:34;;;;;;;31.88;29.38;;;;;;;;;;5055440;28;20272;-79
2021/01/07 11:37:05;;;;;;;31.83;29.25;;;;;;;;;;5055497;28;20259;-78
2021/01/07 11:39:41;;;;;;;30.30;28.02;;;;;;;;;;5055625;28;20192;-78
2021/01/07 11:42:11;;;;;;;30.23;27.60;;;;;;;;;;5055085;28;20192;-78
2021/01/07 11:44:43;;;;;;;31.25;28.85;;;;;;;;;;5055030;28;20186;-77
2021/01/07 11:47:11;;;;;;;30.73;28.27;;;;;;;;;;5054039;28;20208;-78
2021/01/07 11:49:40;;;;;;;30.38;27.98;;;;;;;;;;5054896;28;20573;-78
2021/01/07 11:52:08;;;;;;;31.33;29.02;;;;;;;;;;5054706;28;20229;-78
2021/01/07 11:54:37;;;;;;;31.15;28.75;;;;;;;;;;5054701;28;20771;-79
2021/01/07 11:57:06;;;;;;;30.60;28.10;;;;;;;;;;5055027;28;20220;-78
2021/01/07 11:59:37;;;;;;;31.10;28.80;;;;;;;;;;5053524;28;20192;-78
2021/01/07 12:02:07;;;;;;;28.42;26.33;;;;;;;;;;5053617;28;20241;-78
2021/01/07 12:04:34;;;;;;;29.35;27.15;;;;;;;;;;5054512;28;20184;-78
2021/01/07 12:07:07;;;;;;;29.92;27.52;;;;;;;;;;5053641;28;20201;-77
2021/01/07 12:09:35;;;;;;;28.38;26.25;;;;;;;;;;5054829;28;20188;-78
2021/01/07 12:12:04;;;;;;;28.70;26.50;;;;;;;;;;5054629;28;20195;-79
2021/01/07 12:14:34;;;;;;;29.45;27.25;;;;;;;;;;5054509;28;20192;-78
2021/01/07 12:17:05;;;;;;;28.38;26.27;;;;;;;;;;5053174;28;20262;-78
2021/01/07 12:19:33;;;;;;;24.58;23.02;;;;;;;;;;5054578;28;20246;-78
2021/01/07 12:22:01;;;;;;;27.63;25.67;;;;;;;;;;5054356;28;20282;-78
2021/01/07 12:24:30;;;;;;;29.42;27.33;;;;;;;;;;5054635;28;20192;-78
2021/01/07 12:26:57;;;;;;;27.75;25.75;;;;;;;;;;5054546;28;20220;-77
2021/01/07 12:29:25;;;;;;;28.83;26.73;;;;;;;;;;5054242;28;20188;-78
2021/01/07 12:31:52;;;;;;;26.02;24.33;;;;;;;;;;5054224;28;20192;-78
2021/01/07 12:34:25;;;;;;;28.45;26.35;;;;;;;;;;5054383;28;20190;-78
2021/01/07 12:36:57;;;;;;;28.23;26.13;;;;;;;;;;5053982;28;20240;-78
2021/01/07 12:39:30;;;;;;;28.42;26.17;;;;;;;;;;5054053;28;20228;-78
2021/01/07 12:41:57;;;;;;;26.20;24.40;;;;;;;;;;5054273;28;20203;-78
2021/01/07 12:44:25;;;;;;;27.98;25.98;;;;;;;;;;5053679;28;20202;-78
2021/01/07 12:46:53;;;;;;;26.83;25.00;;;;;;;;;;5052900;28;20197;-78
2021/01/07 12:49:21;;;;;;;28.42;26.42;;;;;;;;;;5054229;28;20193;-78
2021/01/07 12:51:48;;;;;;;28.85;26.58;;;;;;;;;;5054390;28;20259;-78
2021/01/07 12:54:16;;;;;;;27.02;25.10;;;;;;;;;;5054404;28;20227;-78
2021/01/07 12:56:53;;;;;;;26.10;24.30;;;;;;;;;;5053966;28;20221;-79
2021/01/07 12:59:24;;;;;;;28.35;26.25;;;;;;;;;;5054496;28;20543;-78
2021/01/07 13:01:59;;;;;;;29.00;26.52;;;;;;;;;;5054106;28;20189;-78
2021/01/07 13:04:36;;;;;;;29.08;26.83;;;;;;;;;;5053909;28;20199;-78
2021/01/07 13:07:04;;;;;;;29.67;27.38;;;;;;;;;;5053786;28;20214;-78
2021/01/07 13:09:35;;;;;;;28.35;26.10;;;;;;;;;;5054062;28;20213;-78
2021/01/07 13:12:03;;;;;;;27.40;25.38;;;;;;;;;;5053513;28;20193;-78
2021/01/07 13:14:32;;;;;;;28.13;25.92;;;;;;;;;;5052439;28;20239;-78
2021/01/07 13:16:59;;;;;;;29.38;27.08;;;;;;;;;;5053705;28;20251;-78
2021/01/07 13:19:27;;;;;;;29.20;26.83;;;;;;;;;;5053518;28;20196;-79
2021/01/07 13:21:55;;;;;;;28.92;26.70;;;;;;;;;;5053518;28;20192;-78
2021/01/07 13:24:22;;;;;;;28.48;26.20;;;;;;;;;;5052255;28;20196;-78
2021/01/07 13:26:49;;;;;;;27.45;25.35;;;;;;;;;;5053404;28;20188;-78
2021/01/07 13:29:18;;;;;;;29.35;27.15;;;;;;;;;;5053652;28;20188;-78
2021/01/07 13:31:45;;;;;;;28.42;26.33;;;;;;;;;;5053320;28;20638;-78
2021/01/07 13:34:13;;;;;;;28.50;26.27;;;;;;;;;;5053583;28;20211;-78
2021/01/07 13:36:40;;;;;;;28.73;26.40;;;;;;;;;;5052982;28;20635;-81
2021/01/07 13:39:07;;;;;;;30.92;28.15;;;;;;;;;;5053226;28;20330;-78
2021/01/07 13:41:36;;;;;;;28.90;26.52;;;;;;;;;;5053294;28;20189;-78
2021/01/07 13:44:06;;;;;;;31.30;28.48;;;;;;;;;;5053305;28;20201;-78
2021/01/07 13:46:33;;;;;;;30.00;27.63;;;;;;;;;;5053536;28;20266;-80
2021/01/07 13:49:02;;;;;;;31.60;28.85;;;;;;;;;;5053875;28;20207;-79
2021/01/07 13:51:29;;;;;;;31.85;29.25;;;;;;;;;;5053355;28;20189;-78
2021/01/07 13:53:56;;;;;;;33.17;29.80;;;;;;;;;;5053117;28;20232;-78
2021/01/07 13:56:27;;;;;;;33.58;30.17;;;;;;;;;;5056296;28;20231;-78
2021/01/07 13:58:54;;;;;;;32.63;29.80;;;;;;;;;;5057182;28;20200;-78
2021/01/07 14:01:21;;;;;;;32.88;30.08;;;;;;;;;;5057678;28;20196;-77
2021/01/07 14:03:48;;;;;;;33.03;30.13;;;;;;;;;;5057153;28;20193;-77
2021/01/07 14:06:16;;;;;;;30.20;27.70;;;;;;;;;;5057654;28;20190;-77
2021/01/07 14:08:56;;;;;;;31.02;28.23;;;;;;;;;;5057300;28;20291;-78
2021/01/07 14:11:26;;;;;;;31.67;29.17;;;;;;;;;;5056958;28;20195;-78
2021/01/07 14:13:53;;;;;;;32.15;29.27;;;;;;;;;;5057125;28;20188;-78
2021/01/07 14:16:21;;;;;;;33.03;30.38;;;;;;;;;;5056856;28;20216;-78
2021/01/07 14:18:48;;;;;;;31.58;28.98;;;;;;;;;;5057090;28;20192;-78
2021/01/07 14:21:15;;;;;;;33.17;30.55;;;;;;;;;;5056836;28;20192;-78
2021/01/07 14:23:42;;;;;;;33.75;30.88;;;;;;;;;;5057037;28;20623;-78